sensor_id;sensor_type;location;lat;lon;timestamp;P1;durP1;ratioP1;P2;durP2;ratioP2
8596;SDS011;4336;49.310;8.646;2023-04-06T00:02:22;27.13;;;19.27;;
8596;SDS011;4336;49.310;8.646;2023-04-06T00:04:48;23.27;;;18.73;;
8596;SDS011;4336;49.310;8.646;2023-04-06T00:07:14;19.40;;;17.07;;
8596;SDS011;4336;49.310;8.646;2023-04-06T00:09:40;15.80;;;13.33;;
8596;SDS011;4336;49.310;8.646;2023-04-06T00:12:06;22.20;;;18.30;;
8596;SDS011;4336;49.310;8.646;2023-04-06T00:14:32;18.43;;;15.93;;
8596;SDS011;4336;49.310;8.646;2023-04-06T00:16:59;18.70;;;15.73;;
8596;SDS011;4336;49.310;8.646;2023-04-06T00:19:25;19.93;;;16.70;;
8596;SDS011;4336;49.310;8.646;2023-04-06T00:21:51;19.57;;;15.10;;
8596;SDS011;4336;49.310;8.646;2023-04-06T00:24:18;17.50;;;15.17;;
8596;SDS011;4336;49.310;8.646;2023-04-06T00:26:44;17.77;;;15.97;;
8596;SDS011;4336;49.310;8.646;2023-04-06T00:29:10;16.57;;;13.80;;
8596;SDS011;4336;49.310;8.646;2023-04-06T00:31:36;15.10;;;13.23;;
8596;SDS011;4336;49.310;8.646;2023-04-06T00:34:02;17.90;;;15.47;;
8596;SDS011;4336;49.310;8.646;2023-04-06T00:36:28;16.97;;;14.50;;
8596;SDS011;4336;49.310;8.646;2023-04-06T00:38:57;20.20;;;16.70;;
8596;SDS011;4336;49.310;8.646;2023-04-06T00:41:23;14.87;;;13.30;;
8596;SDS011;4336;49.310;8.646;2023-04-06T00:43:50;15.40;;;13.70;;
8596;SDS011;4336;49.310;8.646;2023-04-06T00:46:18;20.47;;;16.43;;
8596;SDS011;4336;49.310;8.646;2023-04-06T00:48:44;17.43;;;15.50;;
8596;SDS011;4336;49.310;8.646;2023-04-06T00:51:10;13.53;;;12.13;;
8596;SDS011;4336;49.310;8.646;2023-04-06T00:53:36;17.27;;;13.80;;
8596;SDS011;4336;49.310;8.646;2023-04-06T00:56:03;18.63;;;14.03;;
8596;SDS011;4336;49.310;8.646;2023-04-06T00:58:38;16.03;;;14.27;;
8596;SDS011;4336;49.310;8.646;2023-04-06T01:01:07;17.90;;;14.10;;
8596;SDS011;4336;49.310;8.646;2023-04-06T01:03:34;15.30;;;13.70;;
8596;SDS011;4336;49.310;8.646;2023-04-06T01:06:01;16.27;;;13.43;;
8596;SDS011;4336;49.310;8.646;2023-04-06T01:08:34;14.80;;;13.30;;
8596;SDS011;4336;49.310;8.646;2023-04-06T01:11:26;14.50;;;13.03;;
8596;SDS011;4336;49.310;8.646;2023-04-06T01:13:53;15.60;;;13.20;;
8596;SDS011;4336;49.310;8.646;2023-04-06T01:16:26;15.00;;;13.50;;
8596;SDS011;4336;49.310;8.646;2023-04-06T01:19:13;16.53;;;13.40;;
8596;SDS011;4336;49.310;8.646;2023-04-06T01:21:45;15.63;;;12.73;;
8596;SDS011;4336;49.310;8.646;2023-04-06T01:24:33;15.60;;;13.90;;
8596;SDS011;4336;49.310;8.646;2023-04-06T01:27:10;15.00;;;13.57;;
8596;SDS011;4336;49.310;8.646;2023-04-06T01:29:55;14.23;;;12.73;;
8596;SDS011;4336;49.310;8.646;2023-04-06T01:32:54;14.27;;;12.77;;
8596;SDS011;4336;49.310;8.646;2023-04-06T01:35:37;18.47;;;13.50;;
8596;SDS011;4336;49.310;8.646;2023-04-06T01:38:15;17.40;;;15.07;;
8596;SDS011;4336;49.310;8.646;2023-04-06T01:40:43;16.93;;;12.67;;
8596;SDS011;4336;49.310;8.646;2023-04-06T01:43:10;14.83;;;12.97;;
8596;SDS011;4336;49.310;8.646;2023-04-06T01:45:49;19.23;;;14.00;;
8596;SDS011;4336;49.310;8.646;2023-04-06T01:48:19;18.20;;;14.73;;
8596;SDS011;4336;49.310;8.646;2023-04-06T01:50:45;16.67;;;14.27;;
8596;SDS011;4336;49.310;8.646;2023-04-06T01:53:16;16.60;;;14.50;;
8596;SDS011;4336;49.310;8.646;2023-04-06T01:55:44;20.40;;;14.37;;
8596;SDS011;4336;49.310;8.646;2023-04-06T01:58:40;17.53;;;14.43;;
8596;SDS011;4336;49.310;8.646;2023-04-06T02:01:06;13.67;;;12.27;;
8596;SDS011;4336;49.310;8.646;2023-04-06T02:03:46;16.77;;;13.90;;
8596;SDS011;4336;49.310;8.646;2023-04-06T02:06:12;16.17;;;14.27;;
8596;SDS011;4336;49.310;8.646;2023-04-06T02:08:43;15.87;;;14.27;;
8596;SDS011;4336;49.310;8.646;2023-04-06T02:11:09;16.27;;;14.67;;
8596;SDS011;4336;49.310;8.646;2023-04-06T02:13:42;18.27;;;14.77;;
8596;SDS011;4336;49.310;8.646;2023-04-06T02:16:09;14.33;;;12.83;;
8596;SDS011;4336;49.310;8.646;2023-04-06T02:18:35;17.30;;;14.47;;
8596;SDS011;4336;49.310;8.646;2023-04-06T02:21:01;14.80;;;13.40;;
8596;SDS011;4336;49.310;8.646;2023-04-06T02:23:28;21.43;;;13.83;;
8596;SDS011;4336;49.310;8.646;2023-04-06T02:25:56;15.30;;;13.70;;
8596;SDS011;4336;49.310;8.646;2023-04-06T02:28:22;16.73;;;15.00;;
8596;SDS011;4336;49.310;8.646;2023-04-06T02:30:48;16.30;;;13.20;;
8596;SDS011;4336;49.310;8.646;2023-04-06T02:33:15;14.13;;;11.90;;
8596;SDS011;4336;49.310;8.646;2023-04-06T02:35:45;14.60;;;13.10;;
8596;SDS011;4336;49.310;8.646;2023-04-06T02:38:11;14.43;;;12.57;;
8596;SDS011;4336;49.310;8.646;2023-04-06T02:40:37;14.57;;;13.07;;
8596;SDS011;4336;49.310;8.646;2023-04-06T02:43:18;16.90;;;13.80;;
8596;SDS011;4336;49.310;8.646;2023-04-06T02:45:44;14.80;;;13.30;;
8596;SDS011;4336;49.310;8.646;2023-04-06T02:48:11;16.87;;;14.63;;
8596;SDS011;4336;49.310;8.646;2023-04-06T02:50:38;15.10;;;12.43;;
8596;SDS011;4336;49.310;8.646;2023-04-06T02:53:06;15.37;;;12.50;;
8596;SDS011;4336;49.310;8.646;2023-04-06T02:55:34;15.63;;;13.03;;
8596;SDS011;4336;49.310;8.646;2023-04-06T02:58:00;17.00;;;12.93;;
8596;SDS011;4336;49.310;8.646;2023-04-06T03:00:34;15.00;;;13.50;;
8596;SDS011;4336;49.310;8.646;2023-04-06T03:03:01;14.80;;;12.90;;
8596;SDS011;4336;49.310;8.646;2023-04-06T03:05:28;15.60;;;13.27;;
8596;SDS011;4336;49.310;8.646;2023-04-06T03:07:54;15.23;;;13.47;;
8596;SDS011;4336;49.310;8.646;2023-04-06T03:10:30;14.77;;;13.27;;
8596;SDS011;4336;49.310;8.646;2023-04-06T03:12:56;15.07;;;13.57;;
8596;SDS011;4336;49.310;8.646;2023-04-06T03:15:31;16.23;;;13.50;;
8596;SDS011;4336;49.310;8.646;2023-04-06T03:18:09;18.20;;;13.90;;
8596;SDS011;4336;49.310;8.646;2023-04-06T03:20:40;17.70;;;13.00;;
8596;SDS011;4336;49.310;8.646;2023-04-06T03:23:08;14.70;;;12.17;;
8596;SDS011;4336;49.310;8.646;2023-04-06T03:25:38;15.53;;;13.77;;
8596;SDS011;4336;49.310;8.646;2023-04-06T03:28:08;19.10;;;14.03;;
8596;SDS011;4336;49.310;8.646;2023-04-06T03:30:40;15.57;;;13.90;;
8596;SDS011;4336;49.310;8.646;2023-04-06T03:33:07;16.93;;;13.77;;
8596;SDS011;4336;49.310;8.646;2023-04-06T03:35:42;15.40;;;13.50;;
8596;SDS011;4336;49.310;8.646;2023-04-06T03:38:09;17.20;;;14.43;;
8596;SDS011;4336;49.310;8.646;2023-04-06T03:40:35;14.87;;;13.30;;
8596;SDS011;4336;49.310;8.646;2023-04-06T03:43:01;16.30;;;14.60;;
8596;SDS011;4336;49.310;8.646;2023-04-06T03:45:31;16.30;;;13.67;;
8596;SDS011;4336;49.310;8.646;2023-04-06T03:47:58;16.27;;;14.40;;
8596;SDS011;4336;49.310;8.646;2023-04-06T03:50:24;15.97;;;14.27;;
8596;SDS011;4336;49.310;8.646;2023-04-06T03:52:51;18.03;;;14.53;;
8596;SDS011;4336;49.310;8.646;2023-04-06T03:55:17;18.27;;;14.50;;
8596;SDS011;4336;49.310;8.646;2023-04-06T03:57:43;15.43;;;12.57;;
8596;SDS011;4336;49.310;8.646;2023-04-06T04:00:10;15.60;;;13.93;;
8596;SDS011;4336;49.310;8.646;2023-04-06T04:02:39;14.93;;;12.53;;
8596;SDS011;4336;49.310;8.646;2023-04-06T04:05:05;16.67;;;13.83;;
8596;SDS011;4336;49.310;8.646;2023-04-06T04:07:32;16.53;;;14.73;;
8596;SDS011;4336;49.310;8.646;2023-04-06T04:09:59;15.77;;;14.13;;
8596;SDS011;4336;49.310;8.646;2023-04-06T04:12:25;15.93;;;14.23;;
8596;SDS011;4336;49.310;8.646;2023-04-06T04:14:51;17.70;;;14.03;;
8596;SDS011;4336;49.310;8.646;2023-04-06T04:17:17;15.80;;;14.17;;
8596;SDS011;4336;49.310;8.646;2023-04-06T04:19:44;18.13;;;15.63;;
8596;SDS011;4336;49.310;8.646;2023-04-06T04:22:10;24.27;;;14.40;;
8596;SDS011;4336;49.310;8.646;2023-04-06T04:24:39;16.97;;;14.00;;
8596;SDS011;4336;49.310;8.646;2023-04-06T04:27:05;14.00;;;12.23;;
8596;SDS011;4336;49.310;8.646;2023-04-06T04:29:32;16.63;;;14.40;;
8596;SDS011;4336;49.310;8.646;2023-04-06T04:32:03;18.70;;;14.93;;
8596;SDS011;4336;49.310;8.646;2023-04-06T04:34:29;15.70;;;14.10;;
8596;SDS011;4336;49.310;8.646;2023-04-06T04:36:56;16.17;;;14.43;;
8596;SDS011;4336;49.310;8.646;2023-04-06T04:39:34;16.53;;;13.53;;
8596;SDS011;4336;49.310;8.646;2023-04-06T04:42:04;18.03;;;13.93;;
8596;SDS011;4336;49.310;8.646;2023-04-06T04:44:34;17.73;;;14.97;;
8596;SDS011;4336;49.310;8.646;2023-04-06T04:47:00;16.90;;;15.13;;
8596;SDS011;4336;49.310;8.646;2023-04-06T04:49:37;20.40;;;15.77;;
8596;SDS011;4336;49.310;8.646;2023-04-06T04:52:04;19.27;;;16.07;;
8596;SDS011;4336;49.310;8.646;2023-04-06T04:54:41;18.87;;;15.67;;
8596;SDS011;4336;49.310;8.646;2023-04-06T04:57:12;18.63;;;15.13;;
8596;SDS011;4336;49.310;8.646;2023-04-06T04:59:42;18.27;;;16.13;;
8596;SDS011;4336;49.310;8.646;2023-04-06T05:02:15;18.37;;;15.00;;
8596;SDS011;4336;49.310;8.646;2023-04-06T05:04:53;16.43;;;14.80;;
8596;SDS011;4336;49.310;8.646;2023-04-06T05:07:23;16.80;;;14.93;;
8596;SDS011;4336;49.310;8.646;2023-04-06T05:09:51;17.67;;;15.90;;
8596;SDS011;4336;49.310;8.646;2023-04-06T05:12:19;16.67;;;14.90;;
8596;SDS011;4336;49.310;8.646;2023-04-06T05:14:59;20.30;;;15.80;;
8596;SDS011;4336;49.310;8.646;2023-04-06T05:17:25;20.70;;;15.53;;
8596;SDS011;4336;49.310;8.646;2023-04-06T05:19:52;17.93;;;15.80;;
8596;SDS011;4336;49.310;8.646;2023-04-06T05:22:22;16.07;;;14.10;;
8596;SDS011;4336;49.310;8.646;2023-04-06T05:24:57;16.73;;;15.00;;
8596;SDS011;4336;49.310;8.646;2023-04-06T05:27:23;15.93;;;14.40;;
8596;SDS011;4336;49.310;8.646;2023-04-06T05:29:51;17.17;;;15.40;;
8596;SDS011;4336;49.310;8.646;2023-04-06T05:32:17;19.67;;;13.80;;
8596;SDS011;4336;49.310;8.646;2023-04-06T05:34:49;18.17;;;15.70;;
8596;SDS011;4336;49.310;8.646;2023-04-06T05:37:15;17.23;;;15.33;;
8596;SDS011;4336;49.310;8.646;2023-04-06T05:39:41;17.37;;;15.60;;
8596;SDS011;4336;49.310;8.646;2023-04-06T05:42:08;16.27;;;14.60;;
8596;SDS011;4336;49.310;8.646;2023-04-06T05:44:53;24.47;;;15.43;;
8596;SDS011;4336;49.310;8.646;2023-04-06T05:47:19;19.23;;;16.67;;
8596;SDS011;4336;49.310;8.646;2023-04-06T05:49:52;17.37;;;15.57;;
8596;SDS011;4336;49.310;8.646;2023-04-06T05:52:28;17.63;;;15.83;;
8596;SDS011;4336;49.310;8.646;2023-04-06T05:54:54;17.07;;;15.13;;
8596;SDS011;4336;49.310;8.646;2023-04-06T05:57:20;17.77;;;15.90;;
8596;SDS011;4336;49.310;8.646;2023-04-06T05:59:48;24.10;;;16.63;;
8596;SDS011;4336;49.310;8.646;2023-04-06T06:02:15;17.17;;;15.37;;
8596;SDS011;4336;49.310;8.646;2023-04-06T06:04:45;17.33;;;15.63;;
8596;SDS011;4336;49.310;8.646;2023-04-06T06:07:12;21.70;;;14.97;;
8596;SDS011;4336;49.310;8.646;2023-04-06T06:09:43;21.20;;;15.90;;
8596;SDS011;4336;49.310;8.646;2023-04-06T06:12:18;18.43;;;14.33;;
8596;SDS011;4336;49.310;8.646;2023-04-06T06:14:46;18.93;;;14.43;;
8596;SDS011;4336;49.310;8.646;2023-04-06T06:17:12;17.53;;;15.73;;
8596;SDS011;4336;49.310;8.646;2023-04-06T06:19:43;17.20;;;15.33;;
8596;SDS011;4336;49.310;8.646;2023-04-06T06:22:09;17.77;;;15.43;;
8596;SDS011;4336;49.310;8.646;2023-04-06T06:24:39;18.27;;;14.40;;
8596;SDS011;4336;49.310;8.646;2023-04-06T06:27:06;17.43;;;15.63;;
8596;SDS011;4336;49.310;8.646;2023-04-06T06:29:34;16.93;;;15.23;;
8596;SDS011;4336;49.310;8.646;2023-04-06T06:32:00;19.27;;;15.53;;
8596;SDS011;4336;49.310;8.646;2023-04-06T06:34:26;17.83;;;13.40;;
8596;SDS011;4336;49.310;8.646;2023-04-06T06:36:55;16.33;;;14.60;;
8596;SDS011;4336;49.310;8.646;2023-04-06T06:39:22;16.63;;;14.83;;
8596;SDS011;4336;49.310;8.646;2023-04-06T06:41:50;18.57;;;16.33;;
8596;SDS011;4336;49.310;8.646;2023-04-06T06:44:21;20.77;;;16.67;;
8596;SDS011;4336;49.310;8.646;2023-04-06T06:46:47;23.90;;;18.00;;
8596;SDS011;4336;49.310;8.646;2023-04-06T06:49:13;21.50;;;14.33;;
8596;SDS011;4336;49.310;8.646;2023-04-06T06:51:40;19.90;;;16.57;;
8596;SDS011;4336;49.310;8.646;2023-04-06T06:54:06;20.20;;;16.07;;
8596;SDS011;4336;49.310;8.646;2023-04-06T06:56:34;20.30;;;15.53;;
8596;SDS011;4336;49.310;8.646;2023-04-06T06:59:03;18.90;;;16.60;;
8596;SDS011;4336;49.310;8.646;2023-04-06T07:01:30;18.57;;;15.23;;
8596;SDS011;4336;49.310;8.646;2023-04-06T07:03:56;21.73;;;17.63;;
8596;SDS011;4336;49.310;8.646;2023-04-06T07:06:23;22.43;;;16.97;;
8596;SDS011;4336;49.310;8.646;2023-04-06T07:08:49;19.43;;;16.57;;
8596;SDS011;4336;49.310;8.646;2023-04-06T07:11:15;18.67;;;15.80;;
8596;SDS011;4336;49.310;8.646;2023-04-06T07:13:42;19.73;;;16.90;;
8596;SDS011;4336;49.310;8.646;2023-04-06T07:16:09;18.80;;;16.80;;
8596;SDS011;4336;49.310;8.646;2023-04-06T07:18:36;19.97;;;16.13;;
8596;SDS011;4336;49.310;8.646;2023-04-06T07:21:03;20.47;;;15.23;;
8596;SDS011;4336;49.310;8.646;2023-04-06T07:23:31;18.77;;;16.90;;
8596;SDS011;4336;49.310;8.646;2023-04-06T07:25:57;21.07;;;16.40;;
8596;SDS011;4336;49.310;8.646;2023-04-06T07:28:23;21.23;;;16.10;;
8596;SDS011;4336;49.310;8.646;2023-04-06T07:30:49;17.87;;;16.13;;
8596;SDS011;4336;49.310;8.646;2023-04-06T07:33:16;18.73;;;16.70;;
8596;SDS011;4336;49.310;8.646;2023-04-06T07:35:42;19.40;;;15.73;;
8596;SDS011;4336;49.310;8.646;2023-04-06T07:38:10;18.43;;;15.97;;
8596;SDS011;4336;49.310;8.646;2023-04-06T07:40:36;19.03;;;15.10;;
8596;SDS011;4336;49.310;8.646;2023-04-06T07:43:02;18.07;;;14.87;;
8596;SDS011;4336;49.310;8.646;2023-04-06T07:45:29;17.23;;;15.27;;
8596;SDS011;4336;49.310;8.646;2023-04-06T07:47:57;22.33;;;17.37;;
8596;SDS011;4336;49.310;8.646;2023-04-06T07:50:25;20.13;;;17.00;;
8596;SDS011;4336;49.310;8.646;2023-04-06T07:52:52;16.70;;;14.67;;
8596;SDS011;4336;49.310;8.646;2023-04-06T07:55:19;18.23;;;15.83;;
8596;SDS011;4336;49.310;8.646;2023-04-06T07:57:45;18.17;;;16.40;;
8596;SDS011;4336;49.310;8.646;2023-04-06T08:00:12;17.07;;;15.17;;
8596;SDS011;4336;49.310;8.646;2023-04-06T08:02:38;19.07;;;17.07;;
8596;SDS011;4336;49.310;8.646;2023-04-06T08:05:05;18.33;;;16.50;;
8596;SDS011;4336;49.310;8.646;2023-04-06T08:07:32;20.90;;;15.70;;
8596;SDS011;4336;49.310;8.646;2023-04-06T08:09:58;19.53;;;17.43;;
8596;SDS011;4336;49.310;8.646;2023-04-06T08:12:24;19.10;;;17.17;;
8596;SDS011;4336;49.310;8.646;2023-04-06T08:14:51;17.30;;;15.53;;
8596;SDS011;4336;49.310;8.646;2023-04-06T08:17:17;19.10;;;17.20;;
8596;SDS011;4336;49.310;8.646;2023-04-06T08:19:43;17.10;;;15.23;;
8596;SDS011;4336;49.310;8.646;2023-04-06T08:22:10;16.77;;;15.07;;
8596;SDS011;4336;49.310;8.646;2023-04-06T08:24:36;18.20;;;16.30;;
8596;SDS011;4336;49.310;8.646;2023-04-06T08:27:03;20.77;;;16.40;;
8596;SDS011;4336;49.310;8.646;2023-04-06T08:29:29;17.17;;;15.33;;
8596;SDS011;4336;49.310;8.646;2023-04-06T08:31:55;15.47;;;13.87;;
8596;SDS011;4336;49.310;8.646;2023-04-06T08:34:21;18.37;;;15.43;;
8596;SDS011;4336;49.310;8.646;2023-04-06T08:36:51;16.37;;;14.83;;
8596;SDS011;4336;49.310;8.646;2023-04-06T08:39:17;15.87;;;14.27;;
8596;SDS011;4336;49.310;8.646;2023-04-06T08:41:50;17.23;;;15.53;;
8596;SDS011;4336;49.310;8.646;2023-04-06T08:44:17;17.37;;;15.57;;
8596;SDS011;4336;49.310;8.646;2023-04-06T08:46:44;16.80;;;14.57;;
8596;SDS011;4336;49.310;8.646;2023-04-06T08:49:10;17.70;;;15.93;;
8596;SDS011;4336;49.310;8.646;2023-04-06T08:51:36;17.83;;;16.13;;
8596;SDS011;4336;49.310;8.646;2023-04-06T08:54:03;19.30;;;12.97;;
8596;SDS011;4336;49.310;8.646;2023-04-06T08:56:29;18.73;;;16.83;;
8596;SDS011;4336;49.310;8.646;2023-04-06T08:58:56;16.97;;;15.17;;
8596;SDS011;4336;49.310;8.646;2023-04-06T09:01:25;16.57;;;14.87;;
8596;SDS011;4336;49.310;8.646;2023-04-06T09:03:54;16.77;;;13.97;;
8596;SDS011;4336;49.310;8.646;2023-04-06T09:06:21;15.57;;;13.67;;
8596;SDS011;4336;49.310;8.646;2023-04-06T09:08:47;15.17;;;13.67;;
8596;SDS011;4336;49.310;8.646;2023-04-06T09:11:14;20.87;;;12.33;;
8596;SDS011;4336;49.310;8.646;2023-04-06T09:13:50;16.47;;;14.73;;
8596;SDS011;4336;49.310;8.646;2023-04-06T09:16:17;17.37;;;14.00;;
8596;SDS011;4336;49.310;8.646;2023-04-06T09:18:43;15.00;;;13.30;;
8596;SDS011;4336;49.310;8.646;2023-04-06T09:21:10;12.77;;;11.47;;
8596;SDS011;4336;49.310;8.646;2023-04-06T09:23:36;14.17;;;12.77;;
8596;SDS011;4336;49.310;8.646;2023-04-06T09:26:12;16.60;;;11.23;;
8596;SDS011;4336;49.310;8.646;2023-04-06T09:31:14;12.30;;;11.13;;
8596;SDS011;4336;49.310;8.646;2023-04-06T09:33:43;14.80;;;12.33;;
8596;SDS011;4336;49.310;8.646;2023-04-06T09:36:10;14.70;;;13.30;;
8596;SDS011;4336;49.310;8.646;2023-04-06T09:38:52;13.43;;;12.03;;
8596;SDS011;4336;49.310;8.646;2023-04-06T09:41:21;14.07;;;11.93;;
8596;SDS011;4336;49.310;8.646;2023-04-06T09:43:49;12.80;;;11.40;;
8596;SDS011;4336;49.310;8.646;2023-04-06T09:46:15;13.00;;;11.90;;
8596;SDS011;4336;49.310;8.646;2023-04-06T09:48:42;13.13;;;11.93;;
8596;SDS011;4336;49.310;8.646;2023-04-06T09:51:08;14.60;;;12.00;;
8596;SDS011;4336;49.310;8.646;2023-04-06T09:53:36;13.00;;;11.80;;
8596;SDS011;4336;49.310;8.646;2023-04-06T09:56:04;10.87;;;9.83;;
8596;SDS011;4336;49.310;8.646;2023-04-06T09:58:33;14.90;;;12.23;;
8596;SDS011;4336;49.310;8.646;2023-04-06T10:01:05;13.30;;;12.00;;
8596;SDS011;4336;49.310;8.646;2023-04-06T10:03:49;13.90;;;12.47;;
8596;SDS011;4336;49.310;8.646;2023-04-06T10:06:21;15.03;;;12.70;;
8596;SDS011;4336;49.310;8.646;2023-04-06T10:08:50;14.70;;;13.30;;
8596;SDS011;4336;49.310;8.646;2023-04-06T10:11:19;14.47;;;12.97;;
8596;SDS011;4336;49.310;8.646;2023-04-06T10:13:45;13.40;;;12.00;;
8596;SDS011;4336;49.310;8.646;2023-04-06T10:16:13;13.20;;;11.80;;
8596;SDS011;4336;49.310;8.646;2023-04-06T10:18:41;14.53;;;12.97;;
8596;SDS011;4336;49.310;8.646;2023-04-06T10:21:11;13.73;;;12.43;;
8596;SDS011;4336;49.310;8.646;2023-04-06T10:23:41;13.10;;;11.80;;
8596;SDS011;4336;49.310;8.646;2023-04-06T10:26:14;12.53;;;11.23;;
8596;SDS011;4336;49.310;8.646;2023-04-06T10:28:42;13.17;;;11.77;;
8596;SDS011;4336;49.310;8.646;2023-04-06T10:31:12;14.17;;;12.40;;
8596;SDS011;4336;49.310;8.646;2023-04-06T10:33:38;14.00;;;12.53;;
8596;SDS011;4336;49.310;8.646;2023-04-06T10:38:37;13.50;;;12.17;;
8596;SDS011;4336;49.310;8.646;2023-04-06T10:41:04;13.30;;;12.10;;
8596;SDS011;4336;49.310;8.646;2023-04-06T10:43:32;12.33;;;11.13;;
8596;SDS011;4336;49.310;8.646;2023-04-06T10:46:00;12.50;;;11.30;;
8596;SDS011;4336;49.310;8.646;2023-04-06T10:48:36;13.93;;;12.50;;
8596;SDS011;4336;49.310;8.646;2023-04-06T10:51:12;12.57;;;11.27;;
8596;SDS011;4336;49.310;8.646;2023-04-06T10:53:41;14.40;;;12.07;;
8596;SDS011;4336;49.310;8.646;2023-04-06T10:56:11;13.70;;;12.30;;
8596;SDS011;4336;49.310;8.646;2023-04-06T10:58:38;16.23;;;12.00;;
8596;SDS011;4336;49.310;8.646;2023-04-06T11:01:13;15.40;;;12.77;;
8596;SDS011;4336;49.310;8.646;2023-04-06T11:03:46;13.20;;;11.97;;
8596;SDS011;4336;49.310;8.646;2023-04-06T11:06:24;13.47;;;12.17;;
8596;SDS011;4336;49.310;8.646;2023-04-06T11:08:52;13.50;;;12.10;;
8596;SDS011;4336;49.310;8.646;2023-04-06T11:11:19;15.07;;;13.50;;
8596;SDS011;4336;49.310;8.646;2023-04-06T11:16:22;14.20;;;12.70;;
8596;SDS011;4336;49.310;8.646;2023-04-06T11:18:53;14.20;;;12.90;;
8596;SDS011;4336;49.310;8.646;2023-04-06T11:21:20;12.70;;;11.50;;
8596;SDS011;4336;49.310;8.646;2023-04-06T11:26:31;13.67;;;12.30;;
8596;SDS011;4336;49.310;8.646;2023-04-06T11:29:01;13.73;;;12.33;;
8596;SDS011;4336;49.310;8.646;2023-04-06T11:31:28;12.93;;;11.67;;
8596;SDS011;4336;49.310;8.646;2023-04-06T11:33:56;13.67;;;12.43;;
8596;SDS011;4336;49.310;8.646;2023-04-06T11:36:22;15.93;;;12.73;;
8596;SDS011;4336;49.310;8.646;2023-04-06T11:38:48;14.50;;;13.10;;
8596;SDS011;4336;49.310;8.646;2023-04-06T11:41:15;13.57;;;12.30;;
8596;SDS011;4336;49.310;8.646;2023-04-06T11:43:50;13.63;;;11.50;;
8596;SDS011;4336;49.310;8.646;2023-04-06T11:46:17;14.27;;;12.80;;
8596;SDS011;4336;49.310;8.646;2023-04-06T11:48:46;13.73;;;12.20;;
8596;SDS011;4336;49.310;8.646;2023-04-06T11:51:12;13.63;;;12.43;;
8596;SDS011;4336;49.310;8.646;2023-04-06T11:53:44;13.20;;;11.90;;
8596;SDS011;4336;49.310;8.646;2023-04-06T11:56:26;13.90;;;12.43;;
8596;SDS011;4336;49.310;8.646;2023-04-06T11:58:54;14.30;;;12.90;;
8596;SDS011;4336;49.310;8.646;2023-04-06T12:01:21;14.07;;;12.73;;
8596;SDS011;4336;49.310;8.646;2023-04-06T12:03:47;13.40;;;12.20;;
8596;SDS011;4336;49.310;8.646;2023-04-06T12:06:13;14.27;;;12.90;;
8596;SDS011;4336;49.310;8.646;2023-04-06T12:08:39;13.17;;;12.00;;
8596;SDS011;4336;49.310;8.646;2023-04-06T12:11:05;14.90;;;13.43;;
8596;SDS011;4336;49.310;8.646;2023-04-06T12:13:31;13.87;;;12.47;;
8596;SDS011;4336;49.310;8.646;2023-04-06T12:15:57;14.27;;;12.87;;
8596;SDS011;4336;49.310;8.646;2023-04-06T12:18:23;13.20;;;11.90;;
8596;SDS011;4336;49.310;8.646;2023-04-06T12:20:49;14.00;;;12.80;;
8596;SDS011;4336;49.310;8.646;2023-04-06T12:23:14;13.13;;;11.93;;
8596;SDS011;4336;49.310;8.646;2023-04-06T12:25:41;15.60;;;12.53;;
8596;SDS011;4336;49.310;8.646;2023-04-06T12:28:07;13.50;;;12.30;;
8596;SDS011;4336;49.310;8.646;2023-04-06T12:30:36;14.70;;;11.97;;
8596;SDS011;4336;49.310;8.646;2023-04-06T12:33:02;13.87;;;12.57;;
8596;SDS011;4336;49.310;8.646;2023-04-06T12:35:28;13.93;;;12.63;;
8596;SDS011;4336;49.310;8.646;2023-04-06T12:37:54;14.73;;;13.33;;
8596;SDS011;4336;49.310;8.646;2023-04-06T12:40:20;12.33;;;11.23;;
8596;SDS011;4336;49.310;8.646;2023-04-06T12:42:46;13.93;;;11.90;;
8596;SDS011;4336;49.310;8.646;2023-04-06T12:45:12;14.43;;;11.30;;
8596;SDS011;4336;49.310;8.646;2023-04-06T12:47:38;13.60;;;12.30;;
8596;SDS011;4336;49.310;8.646;2023-04-06T12:50:04;13.10;;;11.90;;
8596;SDS011;4336;49.310;8.646;2023-04-06T12:52:33;13.10;;;11.90;;
8596;SDS011;4336;49.310;8.646;2023-04-06T12:55:01;13.20;;;11.90;;
8596;SDS011;4336;49.310;8.646;2023-04-06T12:57:27;15.50;;;14.03;;
8596;SDS011;4336;49.310;8.646;2023-04-06T12:59:53;26.30;;;23.73;;
8596;SDS011;4336;49.310;8.646;2023-04-06T13:02:19;14.10;;;12.67;;
8596;SDS011;4336;49.310;8.646;2023-04-06T13:04:46;13.33;;;12.03;;
8596;SDS011;4336;49.310;8.646;2023-04-06T13:07:13;13.67;;;12.47;;
8596;SDS011;4336;49.310;8.646;2023-04-06T13:09:39;13.57;;;12.27;;
8596;SDS011;4336;49.310;8.646;2023-04-06T13:12:05;14.30;;;12.90;;
8596;SDS011;4336;49.310;8.646;2023-04-06T13:14:31;13.57;;;12.37;;
8596;SDS011;4336;49.310;8.646;2023-04-06T13:16:57;13.30;;;12.03;;
8596;SDS011;4336;49.310;8.646;2023-04-06T13:19:23;11.80;;;10.60;;
8596;SDS011;4336;49.310;8.646;2023-04-06T13:21:49;15.63;;;14.13;;
8596;SDS011;4336;49.310;8.646;2023-04-06T13:24:15;16.00;;;14.60;;
8596;SDS011;4336;49.310;8.646;2023-04-06T13:26:41;14.17;;;12.90;;
8596;SDS011;4336;49.310;8.646;2023-04-06T13:29:07;16.27;;;14.77;;
8596;SDS011;4336;49.310;8.646;2023-04-06T13:31:33;14.00;;;12.77;;
8596;SDS011;4336;49.310;8.646;2023-04-06T13:33:59;12.60;;;11.43;;
8596;SDS011;4336;49.310;8.646;2023-04-06T13:36:25;14.10;;;12.80;;
8596;SDS011;4336;49.310;8.646;2023-04-06T13:38:52;15.27;;;13.87;;
8596;SDS011;4336;49.310;8.646;2023-04-06T13:41:19;14.93;;;13.63;;
8596;SDS011;4336;49.310;8.646;2023-04-06T13:43:48;17.07;;;14.27;;
8596;SDS011;4336;49.310;8.646;2023-04-06T13:46:15;15.73;;;14.27;;
8596;SDS011;4336;49.310;8.646;2023-04-06T13:48:41;14.40;;;12.90;;
8596;SDS011;4336;49.310;8.646;2023-04-06T13:51:09;15.27;;;13.93;;
8596;SDS011;4336;49.310;8.646;2023-04-06T13:53:39;14.80;;;13.50;;
8596;SDS011;4336;49.310;8.646;2023-04-06T13:56:05;14.10;;;12.80;;
8596;SDS011;4336;49.310;8.646;2023-04-06T13:58:32;14.93;;;13.47;;
8596;SDS011;4336;49.310;8.646;2023-04-06T14:01:02;18.07;;;16.30;;
8596;SDS011;4336;49.310;8.646;2023-04-06T14:03:29;15.77;;;14.17;;
8596;SDS011;4336;49.310;8.646;2023-04-06T14:05:54;14.93;;;13.53;;
8596;SDS011;4336;49.310;8.646;2023-04-06T14:08:20;15.77;;;14.23;;
8596;SDS011;4336;49.310;8.646;2023-04-06T14:10:46;13.97;;;12.57;;
8596;SDS011;4336;49.310;8.646;2023-04-06T14:13:12;14.43;;;13.13;;
8596;SDS011;4336;49.310;8.646;2023-04-06T14:15:37;10.67;;;9.67;;
8596;SDS011;4336;49.310;8.646;2023-04-06T14:18:03;8.43;;;7.73;;
8596;SDS011;4336;49.310;8.646;2023-04-06T14:20:32;13.53;;;9.47;;
8596;SDS011;4336;49.310;8.646;2023-04-06T14:23:02;10.47;;;9.43;;
8596;SDS011;4336;49.310;8.646;2023-04-06T14:25:28;10.67;;;8.47;;
8596;SDS011;4336;49.310;8.646;2023-04-06T14:27:57;7.67;;;6.97;;
8596;SDS011;4336;49.310;8.646;2023-04-06T14:30:23;9.53;;;8.73;;
8596;SDS011;4336;49.310;8.646;2023-04-06T14:32:49;8.93;;;7.97;;
8596;SDS011;4336;49.310;8.646;2023-04-06T14:35:14;65.17;;;11.67;;
8596;SDS011;4336;49.310;8.646;2023-04-06T14:37:40;14.27;;;9.77;;
8596;SDS011;4336;49.310;8.646;2023-04-06T14:40:07;9.43;;;8.63;;
8596;SDS011;4336;49.310;8.646;2023-04-06T14:42:36;9.20;;;8.30;;
8596;SDS011;4336;49.310;8.646;2023-04-06T14:45:02;8.63;;;7.83;;
8596;SDS011;4336;49.310;8.646;2023-04-06T14:47:28;9.10;;;8.30;;
8596;SDS011;4336;49.310;8.646;2023-04-06T14:49:54;9.73;;;8.73;;
8596;SDS011;4336;49.310;8.646;2023-04-06T14:52:20;10.20;;;9.27;;
8596;SDS011;4336;49.310;8.646;2023-04-06T14:54:45;9.77;;;8.77;;
8596;SDS011;4336;49.310;8.646;2023-04-06T14:57:11;10.00;;;9.00;;
8596;SDS011;4336;49.310;8.646;2023-04-06T14:59:37;7.17;;;6.53;;
8596;SDS011;4336;49.310;8.646;2023-04-06T15:02:03;11.30;;;7.47;;
8596;SDS011;4336;49.310;8.646;2023-04-06T15:04:29;8.30;;;7.43;;
8596;SDS011;4336;49.310;8.646;2023-04-06T15:06:55;8.67;;;7.87;;